sensor_id;sensor_type;location;lat;lon;timestamp;temperature;humidity
5868;DHT22;2960;49.142;7.768;2024-03-17T00:01:54;9.30;70.50
5868;DHT22;2960;49.142;7.768;2024-03-17T00:04:22;9.30;70.50
5868;DHT22;2960;49.142;7.768;2024-03-17T00:06:49;9.30;70.50
5868;DHT22;2960;49.142;7.768;2024-03-17T00:09:16;9.30;70.50
5868;DHT22;2960;49.142;7.768;2024-03-17T00:11:44;9.30;70.50
5868;DHT22;2960;49.142;7.768;2024-03-17T00:14:11;9.30;70.50
5868;DHT22;2960;49.142;7.768;2024-03-17T00:16:38;9.30;70.50
5868;DHT22;2960;49.142;7.768;2024-03-17T00:19:05;9.30;70.50
5868;DHT22;2960;49.142;7.768;2024-03-17T00:21:31;9.30;70.50
5868;DHT22;2960;49.142;7.768;2024-03-17T00:24:00;9.20;70.40
5868;DHT22;2960;49.142;7.768;2024-03-17T00:26:27;9.20;70.50
5868;DHT22;2960;49.142;7.768;2024-03-17T00:28:55;9.20;70.50
5868;DHT22;2960;49.142;7.768;2024-03-17T00:31:22;9.20;70.50
5868;DHT22;2960;49.142;7.768;2024-03-17T00:33:51;9.10;70.50
5868;DHT22;2960;49.142;7.768;2024-03-17T00:36:18;9.10;70.50
5868;DHT22;2960;49.142;7.768;2024-03-17T00:38:45;9.10;70.50
5868;DHT22;2960;49.142;7.768;2024-03-17T00:41:13;9.10;70.60
5868;DHT22;2960;49.142;7.768;2024-03-17T00:43:41;9.00;70.50
5868;DHT22;2960;49.142;7.768;2024-03-17T00:46:08;9.00;70.60
5868;DHT22;2960;49.142;7.768;2024-03-17T00:48:35;9.00;70.60
5868;DHT22;2960;49.142;7.768;2024-03-17T00:51:03;9.00;70.60
5868;DHT22;2960;49.142;7.768;2024-03-17T00:53:29;8.90;70.50
5868;DHT22;2960;49.142;7.768;2024-03-17T00:55:57;9.00;70.60
5868;DHT22;2960;49.142;7.768;2024-03-17T00:58:25;8.90;70.60
5868;DHT22;2960;49.142;7.768;2024-03-17T01:00:52;8.90;70.60
5868;DHT22;2960;49.142;7.768;2024-03-17T01:03:19;8.90;70.60
5868;DHT22;2960;49.142;7.768;2024-03-17T01:05:46;8.90;70.60
5868;DHT22;2960;49.142;7.768;2024-03-17T01:08:13;8.90;70.60
5868;DHT22;2960;49.142;7.768;2024-03-17T01:10:41;8.80;70.60
5868;DHT22;2960;49.142;7.768;2024-03-17T01:13:08;8.80;70.60
5868;DHT22;2960;49.142;7.768;2024-03-17T01:15:38;8.80;70.60
5868;DHT22;2960;49.142;7.768;2024-03-17T01:18:05;8.90;70.80
5868;DHT22;2960;49.142;7.768;2024-03-17T01:20:33;8.80;70.70
5868;DHT22;2960;49.142;7.768;2024-03-17T01:23:01;8.80;70.70
5868;DHT22;2960;49.142;7.768;2024-03-17T01:25:28;8.80;70.70
5868;DHT22;2960;49.142;7.768;2024-03-17T01:27:55;8.80;70.70
5868;DHT22;2960;49.142;7.768;2024-03-17T01:30:23;8.80;70.80
5868;DHT22;2960;49.142;7.768;2024-03-17T01:32:51;8.70;70.80
5868;DHT22;2960;49.142;7.768;2024-03-17T01:35:18;8.70;70.80
5868;DHT22;2960;49.142;7.768;2024-03-17T01:37:45;8.70;70.90
5868;DHT22;2960;49.142;7.768;2024-03-17T01:40:12;8.70;70.90
5868;DHT22;2960;49.142;7.768;2024-03-17T01:42:39;8.70;71.00
5868;DHT22;2960;49.142;7.768;2024-03-17T01:45:25;8.70;71.10
5868;DHT22;2960;49.142;7.768;2024-03-17T01:47:55;8.70;71.10
5868;DHT22;2960;49.142;7.768;2024-03-17T01:50:25;8.60;71.10
5868;DHT22;2960;49.142;7.768;2024-03-17T01:52:53;8.60;71.20
5868;DHT22;2960;49.142;7.768;2024-03-17T01:55:20;8.60;71.30
5868;DHT22;2960;49.142;7.768;2024-03-17T01:57:48;8.60;72.10
5868;DHT22;2960;49.142;7.768;2024-03-17T02:00:16;8.60;71.40
5868;DHT22;2960;49.142;7.768;2024-03-17T02:02:42;8.60;71.40
5868;DHT22;2960;49.142;7.768;2024-03-17T02:05:11;8.60;71.50
5868;DHT22;2960;49.142;7.768;2024-03-17T02:07:39;8.60;71.50
5868;DHT22;2960;49.142;7.768;2024-03-17T02:10:06;8.60;71.50
5868;DHT22;2960;49.142;7.768;2024-03-17T02:12:35;8.60;71.70
5868;DHT22;2960;49.142;7.768;2024-03-17T02:15:02;8.60;71.70
5868;DHT22;2960;49.142;7.768;2024-03-17T02:17:31;8.60;71.80
5868;DHT22;2960;49.142;7.768;2024-03-17T02:19:58;8.60;71.90
5868;DHT22;2960;49.142;7.768;2024-03-17T02:22:27;8.50;71.80
5868;DHT22;2960;49.142;7.768;2024-03-17T02:24:53;8.50;71.80
5868;DHT22;2960;49.142;7.768;2024-03-17T02:27:20;8.50;71.80
5868;DHT22;2960;49.142;7.768;2024-03-17T02:29:46;8.50;71.80
5868;DHT22;2960;49.142;7.768;2024-03-17T02:32:14;8.50;71.90
5868;DHT22;2960;49.142;7.768;2024-03-17T02:34:40;8.50;71.80
5868;DHT22;2960;49.142;7.768;2024-03-17T02:37:07;8.50;71.90
5868;DHT22;2960;49.142;7.768;2024-03-17T02:39:34;8.50;71.90
5868;DHT22;2960;49.142;7.768;2024-03-17T02:42:04;8.50;72.00
5868;DHT22;2960;49.142;7.768;2024-03-17T02:44:34;8.50;72.10
5868;DHT22;2960;49.142;7.768;2024-03-17T02:47:03;8.50;72.10
5868;DHT22;2960;49.142;7.768;2024-03-17T02:49:34;8.50;72.20
5868;DHT22;2960;49.142;7.768;2024-03-17T02:52:02;8.50;72.10
5868;DHT22;2960;49.142;7.768;2024-03-17T02:54:31;8.50;72.20
5868;DHT22;2960;49.142;7.768;2024-03-17T02:56:59;8.50;72.20
5868;DHT22;2960;49.142;7.768;2024-03-17T02:59:26;8.50;72.20
5868;DHT22;2960;49.142;7.768;2024-03-17T03:01:54;8.50;72.20
5868;DHT22;2960;49.142;7.768;2024-03-17T03:04:21;8.50;72.20
5868;DHT22;2960;49.142;7.768;2024-03-17T03:06:48;8.40;72.20
5868;DHT22;2960;49.142;7.768;2024-03-17T03:09:15;8.50;72.30
5868;DHT22;2960;49.142;7.768;2024-03-17T03:11:47;8.40;72.20
5868;DHT22;2960;49.142;7.768;2024-03-17T03:14:16;8.40;72.20
5868;DHT22;2960;49.142;7.768;2024-03-17T03:16:43;8.40;72.20
5868;DHT22;2960;49.142;7.768;2024-03-17T03:19:10;8.40;72.20
5868;DHT22;2960;49.142;7.768;2024-03-17T03:21:37;8.30;72.20
5868;DHT22;2960;49.142;7.768;2024-03-17T03:24:04;8.30;72.20
5868;DHT22;2960;49.142;7.768;2024-03-17T03:26:32;8.30;72.30
5868;DHT22;2960;49.142;7.768;2024-03-17T03:28:59;8.30;72.30
5868;DHT22;2960;49.142;7.768;2024-03-17T03:31:28;8.30;72.30
5868;DHT22;2960;49.142;7.768;2024-03-17T03:33:55;8.30;72.30
5868;DHT22;2960;49.142;7.768;2024-03-17T03:36:22;8.30;72.30
5868;DHT22;2960;49.142;7.768;2024-03-17T03:38:50;8.30;72.30
5868;DHT22;2960;49.142;7.768;2024-03-17T03:41:17;8.30;72.30
5868;DHT22;2960;49.142;7.768;2024-03-17T03:43:44;8.20;72.10
5868;DHT22;2960;49.142;7.768;2024-03-17T03:46:13;8.30;72.20
5868;DHT22;2960;49.142;7.768;2024-03-17T03:48:42;8.20;72.10
5868;DHT22;2960;49.142;7.768;2024-03-17T03:51:10;8.20;72.10
5868;DHT22;2960;49.142;7.768;2024-03-17T03:53:37;8.20;72.10
5868;DHT22;2960;49.142;7.768;2024-03-17T03:56:06;8.20;72.10
5868;DHT22;2960;49.142;7.768;2024-03-17T03:58:33;8.20;72.10
5868;DHT22;2960;49.142;7.768;2024-03-17T04:01:03;8.20;72.80
5868;DHT22;2960;49.142;7.768;2024-03-17T04:03:31;8.20;72.10
5868;DHT22;2960;49.142;7.768;2024-03-17T04:06:04;8.20;72.10
5868;DHT22;2960;49.142;7.768;2024-03-17T04:08:33;8.20;72.10
5868;DHT22;2960;49.142;7.768;2024-03-17T04:11:01;8.10;72.00
5868;DHT22;2960;49.142;7.768;2024-03-17T04:13:28;8.10;72.70
5868;DHT22;2960;49.142;7.768;2024-03-17T04:15:56;8.10;72.00
5868;DHT22;2960;49.142;7.768;2024-03-17T04:18:25;8.10;72.00
5868;DHT22;2960;49.142;7.768;2024-03-17T04:20:56;8.10;72.00
5868;DHT22;2960;49.142;7.768;2024-03-17T04:23:25;8.10;72.00
5868;DHT22;2960;49.142;7.768;2024-03-17T04:25:52;8.10;71.90
5868;DHT22;2960;49.142;7.768;2024-03-17T04:28:20;8.00;71.80
5868;DHT22;2960;49.142;7.768;2024-03-17T04:30:47;8.00;71.80
5868;DHT22;2960;49.142;7.768;2024-03-17T04:33:14;8.00;71.80
5868;DHT22;2960;49.142;7.768;2024-03-17T04:35:42;8.00;71.90
5868;DHT22;2960;49.142;7.768;2024-03-17T04:38:09;8.00;71.90
5868;DHT22;2960;49.142;7.768;2024-03-17T04:40:41;7.90;71.80
5868;DHT22;2960;49.142;7.768;2024-03-17T04:43:09;7.90;71.80
5868;DHT22;2960;49.142;7.768;2024-03-17T04:45:36;7.90;71.80
5868;DHT22;2960;49.142;7.768;2024-03-17T04:48:03;7.90;72.50
5868;DHT22;2960;49.142;7.768;2024-03-17T04:50:31;7.90;71.80
5868;DHT22;2960;49.142;7.768;2024-03-17T04:52:58;7.90;71.80
5868;DHT22;2960;49.142;7.768;2024-03-17T04:55:26;7.90;71.80
5868;DHT22;2960;49.142;7.768;2024-03-17T04:57:55;7.80;71.80
5868;DHT22;2960;49.142;7.768;2024-03-17T05:00:22;7.80;71.80
5868;DHT22;2960;49.142;7.768;2024-03-17T05:02:50;7.80;71.80
5868;DHT22;2960;49.142;7.768;2024-03-17T05:05:17;7.80;71.70
5868;DHT22;2960;49.142;7.768;2024-03-17T05:07:44;7.80;71.80
5868;DHT22;2960;49.142;7.768;2024-03-17T05:10:11;7.80;71.70
5868;DHT22;2960;49.142;7.768;2024-03-17T05:12:38;7.80;71.70
5868;DHT22;2960;49.142;7.768;2024-03-17T05:15:08;7.70;71.60
5868;DHT22;2960;49.142;7.768;2024-03-17T05:17:35;7.70;71.70
5868;DHT22;2960;49.142;7.768;2024-03-17T05:20:03;7.70;71.70
5868;DHT22;2960;49.142;7.768;2024-03-17T05:22:33;7.70;71.70
5868;DHT22;2960;49.142;7.768;2024-03-17T05:25:00;7.70;71.80
5868;DHT22;2960;49.142;7.768;2024-03-17T05:27:27;7.60;71.60
5868;DHT22;2960;49.142;7.768;2024-03-17T05:29:54;7.70;71.70
5868;DHT22;2960;49.142;7.768;2024-03-17T05:32:23;7.60;71.60
5868;DHT22;2960;49.142;7.768;2024-03-17T05:34:52;7.70;71.70
5868;DHT22;2960;49.142;7.768;2024-03-17T05:37:19;7.60;72.40
5868;DHT22;2960;49.142;7.768;2024-03-17T05:39:46;7.60;71.60
5868;DHT22;2960;49.142;7.768;2024-03-17T05:42:13;7.60;71.60
5868;DHT22;2960;49.142;7.768;2024-03-17T05:44:40;7.60;72.40
5868;DHT22;2960;49.142;7.768;2024-03-17T05:47:17;7.50;71.60
5868;DHT22;2960;49.142;7.768;2024-03-17T05:49:46;7.50;72.40
5868;DHT22;2960;49.142;7.768;2024-03-17T05:52:13;7.60;71.60
5868;DHT22;2960;49.142;7.768;2024-03-17T05:54:41;7.40;71.50
5868;DHT22;2960;49.142;7.768;2024-03-17T05:57:08;7.40;71.60
5868;DHT22;2960;49.142;7.768;2024-03-17T05:59:38;7.40;71.70
5868;DHT22;2960;49.142;7.768;2024-03-17T06:02:05;7.40;71.70
5868;DHT22;2960;49.142;7.768;2024-03-17T06:04:32;7.40;71.80
5868;DHT22;2960;49.142;7.768;2024-03-17T06:07:02;7.30;72.50
5868;DHT22;2960;49.142;7.768;2024-03-17T06:09:29;7.30;71.70
5868;DHT22;2960;49.142;7.768;2024-03-17T06:11:56;7.30;71.70
5868;DHT22;2960;49.142;7.768;2024-03-17T06:14:27;7.40;71.80
5868;DHT22;2960;49.142;7.768;2024-03-17T06:16:54;7.30;71.70
5868;DHT22;2960;49.142;7.768;2024-03-17T06:19:21;7.30;72.30
5868;DHT22;2960;49.142;7.768;2024-03-17T06:21:48;7.30;71.60
5868;DHT22;2960;49.142;7.768;2024-03-17T06:24:18;7.20;71.50
5868;DHT22;2960;49.142;7.768;2024-03-17T06:26:45;7.20;71.60
5868;DHT22;2960;49.142;7.768;2024-03-17T06:29:15;7.20;72.30
5868;DHT22;2960;49.142;7.768;2024-03-17T06:31:42;7.20;71.60
5868;DHT22;2960;49.142;7.768;2024-03-17T06:34:10;7.20;71.60
5868;DHT22;2960;49.142;7.768;2024-03-17T06:36:38;7.30;71.70
5868;DHT22;2960;49.142;7.768;2024-03-17T06:39:05;7.20;71.50
5868;DHT22;2960;49.142;7.768;2024-03-17T06:41:33;7.40;71.70
5868;DHT22;2960;49.142;7.768;2024-03-17T06:44:00;7.30;71.60
5868;DHT22;2960;49.142;7.768;2024-03-17T06:46:27;7.30;71.50
5868;DHT22;2960;49.142;7.768;2024-03-17T06:48:54;7.30;71.50
5868;DHT22;2960;49.142;7.768;2024-03-17T06:51:24;7.30;71.50
5868;DHT22;2960;49.142;7.768;2024-03-17T06:53:51;7.40;71.50
5868;DHT22;2960;49.142;7.768;2024-03-17T06:56:18;7.40;71.40
5868;DHT22;2960;49.142;7.768;2024-03-17T06:58:46;7.40;71.30
5868;DHT22;2960;49.142;7.768;2024-03-17T07:01:13;7.50;71.40
5868;DHT22;2960;49.142;7.768;2024-03-17T07:03:40;7.50;71.30
5868;DHT22;2960;49.142;7.768;2024-03-17T07:06:07;7.50;71.30
5868;DHT22;2960;49.142;7.768;2024-03-17T07:08:36;7.60;71.40
5868;DHT22;2960;49.142;7.768;2024-03-17T07:11:05;7.60;71.40
5868;DHT22;2960;49.142;7.768;2024-03-17T07:13:35;7.60;71.40
5868;DHT22;2960;49.142;7.768;2024-03-17T07:16:05;7.60;71.30
5868;DHT22;2960;49.142;7.768;2024-03-17T07:18:33;7.70;71.30
5868;DHT22;2960;49.142;7.768;2024-03-17T07:21:03;7.70;71.30
5868;DHT22;2960;49.142;7.768;2024-03-17T07:23:31;7.70;71.40
5868;DHT22;2960;49.142;7.768;2024-03-17T07:26:00;7.70;71.20
5868;DHT22;2960;49.142;7.768;2024-03-17T07:28:28;7.80;71.30
5868;DHT22;2960;49.142;7.768;2024-03-17T07:30:56;7.80;71.20
5868;DHT22;2960;49.142;7.768;2024-03-17T07:33:26;7.80;71.30
5868;DHT22;2960;49.142;7.768;2024-03-17T07:35:54;7.80;71.20
5868;DHT22;2960;49.142;7.768;2024-03-17T07:38:23;7.90;71.30
5868;DHT22;2960;49.142;7.768;2024-03-17T07:40:59;7.80;71.20
5868;DHT22;2960;49.142;7.768;2024-03-17T07:43:28;7.90;71.30
5868;DHT22;2960;49.142;7.768;2024-03-17T07:46:00;7.90;71.30
5868;DHT22;2960;49.142;7.768;2024-03-17T07:48:29;7.90;71.30
5868;DHT22;2960;49.142;7.768;2024-03-17T07:50:57;7.90;71.30
5868;DHT22;2960;49.142;7.768;2024-03-17T07:53:26;7.90;71.30
5868;DHT22;2960;49.142;7.768;2024-03-17T07:56:00;8.10;71.40
5868;DHT22;2960;49.142;7.768;2024-03-17T07:58:29;8.00;71.30
5868;DHT22;2960;49.142;7.768;2024-03-17T08:00:58;8.10;71.40
5868;DHT22;2960;49.142;7.768;2024-03-17T08:03:31;8.10;72.10
5868;DHT22;2960;49.142;7.768;2024-03-17T08:06:01;8.20;71.40
5868;DHT22;2960;49.142;7.768;2024-03-17T08:08:29;8.20;71.30
5868;DHT22;2960;49.142;7.768;2024-03-17T08:10:56;8.20;71.30
5868;DHT22;2960;49.142;7.768;2024-03-17T08:13:24;8.30;71.30
5868;DHT22;2960;49.142;7.768;2024-03-17T08:15:57;8.30;71.30
5868;DHT22;2960;49.142;7.768;2024-03-17T08:18:25;8.40;71.30
5868;DHT22;2960;49.142;7.768;2024-03-17T08:20:54;8.40;71.30
5868;DHT22;2960;49.142;7.768;2024-03-17T08:23:21;8.50;71.40
5868;DHT22;2960;49.142;7.768;2024-03-17T08:25:52;8.50;71.30
5868;DHT22;2960;49.142;7.768;2024-03-17T08:28:20;8.60;71.40
5868;DHT22;2960;49.142;7.768;2024-03-17T08:30:51;8.70;71.40
5868;DHT22;2960;49.142;7.768;2024-03-17T08:33:20;8.80;71.40
5868;DHT22;2960;49.142;7.768;2024-03-17T08:35:56;9.00;71.60
5868;DHT22;2960;49.142;7.768;2024-03-17T08:38:24;9.00;71.40
5868;DHT22;2960;49.142;7.768;2024-03-17T08:40:53;9.10;71.40
5868;DHT22;2960;49.142;7.768;2024-03-17T08:43:21;9.10;71.20
5868;DHT22;2960;49.142;7.768;2024-03-17T08:45:54;9.30;71.30
5868;DHT22;2960;49.142;7.768;2024-03-17T08:48:24;9.40;71.30
5868;DHT22;2960;49.142;7.768;2024-03-17T08:50:51;9.50;71.30
5868;DHT22;2960;49.142;7.768;2024-03-17T08:53:20;9.60;71.30
5868;DHT22;2960;49.142;7.768;2024-03-17T08:55:49;9.70;71.20
5868;DHT22;2960;49.142;7.768;2024-03-17T08:58:16;9.80;71.20
5868;DHT22;2960;49.142;7.768;2024-03-17T09:00:44;9.90;71.10
5868;DHT22;2960;49.142;7.768;2024-03-17T09:03:11;9.90;71.10
5868;DHT22;2960;49.142;7.768;2024-03-17T09:05:39;10.00;70.00
5868;DHT22;2960;49.142;7.768;2024-03-17T09:08:07;10.10;70.00
5868;DHT22;2960;49.142;7.768;2024-03-17T09:10:40;10.10;70.60
5868;DHT22;2960;49.142;7.768;2024-03-17T09:13:07;10.20;70.00
5868;DHT22;2960;49.142;7.768;2024-03-17T09:15:39;10.20;69.90
5868;DHT22;2960;49.142;7.768;2024-03-17T09:18:06;10.30;70.00
5868;DHT22;2960;49.142;7.768;2024-03-17T09:20:33;10.40;70.10
5868;DHT22;2960;49.142;7.768;2024-03-17T09:23:00;10.50;70.20
5868;DHT22;2960;49.142;7.768;2024-03-17T09:25:27;10.60;70.30
5868;DHT22;2960;49.142;7.768;2024-03-17T09:27:56;10.80;70.40
5868;DHT22;2960;49.142;7.768;2024-03-17T09:30:24;11.00;70.80
5868;DHT22;2960;49.142;7.768;2024-03-17T09:32:51;11.20;70.90
5868;DHT22;2960;49.142;7.768;2024-03-17T09:35:18;11.40;71.60
5868;DHT22;2960;49.142;7.768;2024-03-17T09:37:45;11.60;71.40
5868;DHT22;2960;49.142;7.768;2024-03-17T09:40:14;11.80;70.50
5868;DHT22;2960;49.142;7.768;2024-03-17T09:42:41;12.00;70.50
5868;DHT22;2960;49.142;7.768;2024-03-17T09:45:12;12.10;70.30
5868;DHT22;2960;49.142;7.768;2024-03-17T09:47:41;12.30;70.30
5868;DHT22;2960;49.142;7.768;2024-03-17T09:50:13;12.50;70.20
5868;DHT22;2960;49.142;7.768;2024-03-17T09:52:42;12.60;70.10
5868;DHT22;2960;49.142;7.768;2024-03-17T09:55:15;12.80;70.10
5868;DHT22;2960;49.142;7.768;2024-03-17T09:57:44;13.10;70.20
5868;DHT22;2960;49.142;7.768;2024-03-17T10:00:14;13.20;69.80
5868;DHT22;2960;49.142;7.768;2024-03-17T10:02:42;13.40;69.60
5868;DHT22;2960;49.142;7.768;2024-03-17T10:05:21;13.70;69.40
5868;DHT22;2960;49.142;7.768;2024-03-17T10:07:49;13.90;69.30
5868;DHT22;2960;49.142;7.768;2024-03-17T10:10:17;14.10;69.10
5868;DHT22;2960;49.142;7.768;2024-03-17T10:12:49;14.40;69.10
5868;DHT22;2960;49.142;7.768;2024-03-17T10:15:19;14.60;68.80
5868;DHT22;2960;49.142;7.768;2024-03-17T10:17:47;14.90;68.60
5868;DHT22;2960;49.142;7.768;2024-03-17T10:20:15;15.20;68.30
5868;DHT22;2960;49.142;7.768;2024-03-17T10:23:00;15.50;68.00
5868;DHT22;2960;49.142;7.768;2024-03-17T10:25:30;15.80;67.70
5868;DHT22;2960;49.142;7.768;2024-03-17T10:27:58;16.00;67.30
5868;DHT22;2960;49.142;7.768;2024-03-17T10:30:28;16.20;67.00
5868;DHT22;2960;49.142;7.768;2024-03-17T10:32:57;16.40;66.60
5868;DHT22;2960;49.142;7.768;2024-03-17T10:35:30;16.70;66.30
5868;DHT22;2960;49.142;7.768;2024-03-17T10:38:00;16.90;66.00
5868;DHT22;2960;49.142;7.768;2024-03-17T10:40:28;17.00;65.70
5868;DHT22;2960;49.142;7.768;2024-03-17T10:42:57;17.20;65.40
5868;DHT22;2960;49.142;7.768;2024-03-17T10:45:26;17.40;66.00
5868;DHT22;2960;49.142;7.768;2024-03-17T10:47:59;17.60;65.00
5868;DHT22;2960;49.142;7.768;2024-03-17T10:50:30;17.70;64.40
5868;DHT22;2960;49.142;7.768;2024-03-17T10:53:02;17.90;63.90
5868;DHT22;2960;49.142;7.768;2024-03-17T10:55:43;17.90;63.60
5868;DHT22;2960;49.142;7.768;2024-03-17T10:58:23;18.00;63.30
5868;DHT22;2960;49.142;7.768;2024-03-17T11:01:02;18.00;63.00
5868;DHT22;2960;49.142;7.768;2024-03-17T11:03:32;18.00;62.70
5868;DHT22;2960;49.142;7.768;2024-03-17T11:06:02;18.10;62.60
5868;DHT22;2960;49.142;7.768;2024-03-17T11:08:32;18.10;62.10
5868;DHT22;2960;49.142;7.768;2024-03-17T11:11:01;18.00;61.90
5868;DHT22;2960;49.142;7.768;2024-03-17T11:13:31;17.90;61.40
5868;DHT22;2960;49.142;7.768;2024-03-17T11:16:00;17.80;61.40
5868;DHT22;2960;49.142;7.768;2024-03-17T11:18:35;17.70;61.50
5868;DHT22;2960;49.142;7.768;2024-03-17T11:21:06;17.50;61.40
5868;DHT22;2960;49.142;7.768;2024-03-17T11:23:56;17.40;61.30
5868;DHT22;2960;49.142;7.768;2024-03-17T11:26:30;17.20;61.20
5868;DHT22;2960;49.142;7.768;2024-03-17T11:28:58;17.20;61.30
5868;DHT22;2960;49.142;7.768;2024-03-17T11:31:44;17.10;61.30
5868;DHT22;2960;49.142;7.768;2024-03-17T11:34:37;17.00;61.90
5868;DHT22;2960;49.142;7.768;2024-03-17T11:37:06;16.80;60.90
5868;DHT22;2960;49.142;7.768;2024-03-17T11:39:49;16.70;60.80
5868;DHT22;2960;49.142;7.768;2024-03-17T11:42:19;16.70;60.80
5868;DHT22;2960;49.142;7.768;2024-03-17T11:44:59;16.50;60.40
5868;DHT22;2960;49.142;7.768;2024-03-17T11:47:36;16.50;60.50
5868;DHT22;2960;49.142;7.768;2024-03-17T11:50:04;16.40;60.40
5868;DHT22;2960;49.142;7.768;2024-03-17T11:52:34;16.40;60.40
5868;DHT22;2960;49.142;7.768;2024-03-17T11:55:00;16.40;60.20
5868;DHT22;2960;49.142;7.768;2024-03-17T11:57:27;16.30;59.90
5868;DHT22;2960;49.142;7.768;2024-03-17T11:59:55;16.30;59.90
5868;DHT22;2960;49.142;7.768;2024-03-17T12:02:24;16.30;60.00
5868;DHT22;2960;49.142;7.768;2024-03-17T12:04:53;16.20;60.00
5868;DHT22;2960;49.142;7.768;2024-03-17T12:07:23;16.20;60.00
5868;DHT22;2960;49.142;7.768;2024-03-17T12:09:51;16.20;60.00
5868;DHT22;2960;49.142;7.768;2024-03-17T12:12:20;16.10;59.70
5868;DHT22;2960;49.142;7.768;2024-03-17T12:14:47;16.10;59.50
5868;DHT22;2960;49.142;7.768;2024-03-17T12:17:20;16.10;59.50
5868;DHT22;2960;49.142;7.768;2024-03-17T12:19:47;16.10;59.50
5868;DHT22;2960;49.142;7.768;2024-03-17T12:22:18;16.10;59.30
5868;DHT22;2960;49.142;7.768;2024-03-17T12:24:48;16.00;59.20
5868;DHT22;2960;49.142;7.768;2024-03-17T12:27:20;16.00;59.30
5868;DHT22;2960;49.142;7.768;2024-03-17T12:29:48;16.00;59.30
5868;DHT22;2960;49.142;7.768;2024-03-17T12:32:18;16.10;59.40
5868;DHT22;2960;49.142;7.768;2024-03-17T12:34:47;16.00;59.30
5868;DHT22;2960;49.142;7.768;2024-03-17T12:37:19;16.10;59.20
5868;DHT22;2960;49.142;7.768;2024-03-17T12:39:46;16.10;59.20
5868;DHT22;2960;49.142;7.768;2024-03-17T12:42:14;16.10;59.80
5868;DHT22;2960;49.142;7.768;2024-03-17T12:44:48;16.10;59.70
5868;DHT22;2960;49.142;7.768;2024-03-17T12:47:17;16.00;59.00
5868;DHT22;2960;49.142;7.768;2024-03-17T12:49:47;16.10;59.10
5868;DHT22;2960;49.142;7.768;2024-03-17T12:52:21;16.00;59.00
5868;DHT22;2960;49.142;7.768;2024-03-17T12:54:59;16.00;59.50
5868;DHT22;2960;49.142;7.768;2024-03-17T12:57:41;16.00;58.90
5868;DHT22;2960;49.142;7.768;2024-03-17T13:00:26;15.90;58.90
5868;DHT22;2960;49.142;7.768;2024-03-17T13:02:59;15.80;58.90
5868;DHT22;2960;49.142;7.768;2024-03-17T13:05:27;15.80;59.00
5868;DHT22;2960;49.142;7.768;2024-03-17T13:07:55;15.80;58.90
5868;DHT22;2960;49.142;7.768;2024-03-17T13:10:24;15.80;58.90
5868;DHT22;2960;49.142;7.768;2024-03-17T13:12:59;15.80;58.90
5868;DHT22;2960;49.142;7.768;2024-03-17T13:15:28;15.80;58.90
5868;DHT22;2960;49.142;7.768;2024-03-17T13:17:57;15.80;58.90
5868;DHT22;2960;49.142;7.768;2024-03-17T13:20:25;15.80;58.80
5868;DHT22;2960;49.142;7.768;2024-03-17T13:22:54;15.80;58.80
5868;DHT22;2960;49.142;7.768;2024-03-17T13:25:23;15.80;58.80
5868;DHT22;2960;49.142;7.768;2024-03-17T13:27:53;15.80;58.80
5868;DHT22;2960;49.142;7.768;2024-03-17T13:30:22;15.80;58.70
5868;DHT22;2960;49.142;7.768;2024-03-17T13:32:51;15.80;58.70
5868;DHT22;2960;49.142;7.768;2024-03-17T13:35:23;15.80;58.70
5868;DHT22;2960;49.142;7.768;2024-03-17T13:37:52;15.80;58.60
5868;DHT22;2960;49.142;7.768;2024-03-17T13:40:22;15.80;58.50
5868;DHT22;2960;49.142;7.768;2024-03-17T13:42:51;15.80;58.50
5868;DHT22;2960;49.142;7.768;2024-03-17T13:45:23;15.80;58.50
5868;DHT22;2960;49.142;7.768;2024-03-17T13:47:55;15.80;58.50
5868;DHT22;2960;49.142;7.768;2024-03-17T13:50:23;15.80;58.50
5868;DHT22;2960;49.142;7.768;2024-03-17T13:52:51;15.90;58.60
5868;DHT22;2960;49.142;7.768;2024-03-17T13:55:20;15.90;58.60
5868;DHT22;2960;49.142;7.768;2024-03-17T13:57:50;16.00;58.40
5868;DHT22;2960;49.142;7.768;2024-03-17T14:00:20;16.00;58.10
5868;DHT22;2960;49.142;7.768;2024-03-17T14:02:49;16.00;58.10
5868;DHT22;2960;49.142;7.768;2024-03-17T14:05:19;16.00;58.10
5868;DHT22;2960;49.142;7.768;2024-03-17T14:07:48;16.10;58.20
5868;DHT22;2960;49.142;7.768;2024-03-17T14:10:17;16.10;58.00
5868;DHT22;2960;49.142;7.768;2024-03-17T14:12:46;16.10;57.90
5868;DHT22;2960;49.142;7.768;2024-03-17T14:15:14;16.20;57.90
5868;DHT22;2960;49.142;7.768;2024-03-17T14:17:43;16.20;57.80
5868;DHT22;2960;49.142;7.768;2024-03-17T14:20:14;16.30;57.80
5868;DHT22;2960;49.142;7.768;2024-03-17T14:22:44;16.40;57.80
5868;DHT22;2960;49.142;7.768;2024-03-17T14:25:16;16.40;57.70
5868;DHT22;2960;49.142;7.768;2024-03-17T14:27:46;16.50;57.70
5868;DHT22;2960;49.142;7.768;2024-03-17T14:30:16;16.60;57.50
5868;DHT22;2960;49.142;7.768;2024-03-17T14:32:44;16.70;57.40
5868;DHT22;2960;49.142;7.768;2024-03-17T14:35:13;16.80;57.20
5868;DHT22;2960;49.142;7.768;2024-03-17T14:37:41;16.80;56.90
5868;DHT22;2960;49.142;7.768;2024-03-17T14:40:14;16.90;56.90
5868;DHT22;2960;49.142;7.768;2024-03-17T14:42:47;16.90;56.30
5868;DHT22;2960;49.142;7.768;2024-03-17T14:45:16;16.90;56.20
5868;DHT22;2960;49.142;7.768;2024-03-17T14:47:43;16.80;56.10
5868;DHT22;2960;49.142;7.768;2024-03-17T14:50:11;16.80;56.20
5868;DHT22;2960;49.142;7.768;2024-03-17T14:52:38;16.70;56.20
5868;DHT22;2960;49.142;7.768;2024-03-17T14:55:07;16.70;56.20
5868;DHT22;2960;49.142;7.768;2024-03-17T14:57:36;16.70;56.00
5868;DHT22;2960;49.142;7.768;2024-03-17T15:00:07;16.60;56.00
5868;DHT22;2960;49.142;7.768;2024-03-17T15:02:41;16.60;56.00
5868;DHT22;2960;49.142;7.768;2024-03-17T15:05:09;16.50;56.30
5868;DHT22;2960;49.142;7.768;2024-03-17T15:07:36;16.50;56.50
5868;DHT22;2960;49.142;7.768;2024-03-17T15:10:04;16.50;56.40
5868;DHT22;2960;49.142;7.768;2024-03-17T15:12:32;16.60;56.40
5868;DHT22;2960;49.142;7.768;2024-03-17T15:15:00;16.50;56.30
5868;DHT22;2960;49.142;7.768;2024-03-17T15:17:29;16.50;56.30
5868;DHT22;2960;49.142;7.768;2024-03-17T15:19:56;16.50;56.10
5868;DHT22;2960;49.142;7.768;2024-03-17T15:22:23;16.40;56.00
5868;DHT22;2960;49.142;7.768;2024-03-17T15:24:52;16.40;56.00
5868;DHT22;2960;49.142;7.768;2024-03-17T15:27:19;16.30;55.80
5868;DHT22;2960;49.142;7.768;2024-03-17T15:29:46;16.30;55.90
5868;DHT22;2960;49.142;7.768;2024-03-17T15:32:14;16.20;56.50
5868;DHT22;2960;49.142;7.768;2024-03-17T15:34:43;16.10;55.80
5868;DHT22;2960;49.142;7.768;2024-03-17T15:37:10;16.00;55.80
5868;DHT22;2960;49.142;7.768;2024-03-17T15:39:38;16.00;55.80
5868;DHT22;2960;49.142;7.768;2024-03-17T15:42:05;16.00;55.90
5868;DHT22;2960;49.142;7.768;2024-03-17T15:44:32;15.90;55.90
5868;DHT22;2960;49.142;7.768;2024-03-17T15:46:59;15.90;55.90
5868;DHT22;2960;49.142;7.768;2024-03-17T15:49:29;15.90;55.90
5868;DHT22;2960;49.142;7.768;2024-03-17T15:51:57;15.90;55.90
5868;DHT22;2960;49.142;7.768;2024-03-17T15:54:24;15.90;55.90
5868;DHT22;2960;49.142;7.768;2024-03-17T15:56:51;15.80;55.80
5868;DHT22;2960;49.142;7.768;2024-03-17T15:59:18;15.80;56.50
5868;DHT22;2960;49.142;7.768;2024-03-17T16:01:48;15.80;55.90
5868;DHT22;2960;49.142;7.768;2024-03-17T16:04:18;15.80;56.00
5868;DHT22;2960;49.142;7.768;2024-03-17T16:06:50;15.80;55.90
5868;DHT22;2960;49.142;7.768;2024-03-17T16:09:19;15.80;55.90
5868;DHT22;2960;49.142;7.768;2024-03-17T16:11:46;15.70;55.90
5868;DHT22;2960;49.142;7.768;2024-03-17T16:14:14;15.70;56.00
5868;DHT22;2960;49.142;7.768;2024-03-17T16:16:42;15.60;56.00
5868;DHT22;2960;49.142;7.768;2024-03-17T16:19:11;15.60;56.00
5868;DHT22;2960;49.142;7.768;2024-03-17T16:21:39;15.60;56.10